Terminal Aerodrome Forecast
Issued by NWS Newport/Morehead City, NC

Home | Current Version | Previous Version | Graphics & Text | Print | Product List | Glossary Off
Versions: 1 2 3 4 5 6 7 8 9 10 11 12 13 14 15 16 17 18 19 20 21

000
FTUS42 KMHX 021725
TAFEWN
TAF
KEWN 021725Z 0218/0318 36010KT P6SM SCT250
     FM030000 04005KT P6SM SCT250
     FM030900 04005KT P6SM BKN250
     FM031100 04005KT P6SM BKN100
     FM031300 04005KT P6SM OVC050=

USA.gov is the U.S. government's official web portal to all federal, state and local government web resources and services.